DAL782 KLAX-KATL
Flight info
| Callsign | DAL782 |
|---|---|
| Flight time | N/A |
| Altitude | 41000 |
| Route | DOTSS2 CLEEE PKE HIDAT KA27O NABOB J74 SJN J231 ACH TCC J78 IRW J14 LIT J66 BEATS RUSSA GLAVN2 |
| Aircraft | A359/H-SDE2E3GHIJ3J4J5LM1ORWXY/LB1D1 |
Departure
| Time | N/A |
|---|---|
| Airport | Los Angeles International Airport (KLAX) |
Arrival
| Time | 2026-05-05 21:03 |
|---|---|
| Airport | Hartsfield Jackson Atlanta International Airport (KATL) |
| Time | Latitude | Longitude | Altitude | Speed | Heading |
|---|---|---|---|---|---|
| 2026-05-05 18:58 | 35.05338 | -105.42644 | 40800 ft | 585 kts | 83° |
| 2026-05-05 18:58 | 35.06083 | -105.37761 | 40806 ft | 586 kts | 83° |
| 2026-05-05 18:58 | 35.07571 | -105.27968 | 40774 ft | 586 kts | 83° |
| 2026-05-05 18:59 | 35.09042 | -105.18232 | 40760 ft | 587 kts | 83° |
| 2026-05-05 18:59 | 35.10517 | -105.08422 | 40747 ft | 588 kts | 83° |
| 2026-05-05 19:00 | 35.11476 | -104.98533 | 40752 ft | 585 kts | 90° |
| 2026-05-05 19:00 | 35.12054 | -104.88587 | 40782 ft | 586 kts | 91° |
| 2026-05-05 19:01 | 35.12561 | -104.78638 | 40816 ft | 587 kts | 91° |
| 2026-05-05 19:01 | 35.13066 | -104.68681 | 40844 ft | 587 kts | 91° |
| 2026-05-05 19:02 | 35.13571 | -104.58800 | 40837 ft | 587 kts | 91° |
| 2026-05-05 19:02 | 35.14077 | -104.48846 | 40814 ft | 587 kts | 91° |
| 2026-05-05 19:03 | 35.14576 | -104.38878 | 40778 ft | 587 kts | 91° |
| 2026-05-05 19:03 | 35.15065 | -104.28911 | 40749 ft | 588 kts | 91° |
| 2026-05-05 19:04 | 35.15547 | -104.18933 | 40756 ft | 588 kts | 91° |
| 2026-05-05 19:04 | 35.16021 | -104.08945 | 40766 ft | 588 kts | 91° |
| 2026-05-05 19:05 | 35.16485 | -103.98961 | 40806 ft | 589 kts | 91° |
| 2026-05-05 19:05 | 35.16942 | -103.88965 | 40864 ft | 589 kts | 91° |
| 2026-05-05 19:06 | 35.17392 | -103.78961 | 40908 ft | 590 kts | 91° |
| 2026-05-05 19:06 | 35.17834 | -103.68934 | 40944 ft | 590 kts | 91° |
| 2026-05-05 19:07 | 35.18269 | -103.58903 | 40944 ft | 590 kts | 91° |
| 2026-05-05 19:07 | 35.18651 | -103.48869 | 40941 ft | 590 kts | 92° |
| 2026-05-05 19:08 | 35.18973 | -103.38899 | 40909 ft | 590 kts | 92° |
| 2026-05-05 19:08 | 35.19295 | -103.28797 | 40877 ft | 591 kts | 92° |
| 2026-05-05 19:09 | 35.19620 | -103.18758 | 40852 ft | 591 kts | 92° |
| 2026-05-05 19:09 | 35.19940 | -103.08767 | 40848 ft | 592 kts | 92° |
| 2026-05-05 19:10 | 35.20253 | -102.98707 | 40852 ft | 592 kts | 92° |
| 2026-05-05 19:10 | 35.20557 | -102.88630 | 40855 ft | 593 kts | 92° |
| 2026-05-05 19:11 | 35.20853 | -102.78546 | 40853 ft | 593 kts | 92° |
| 2026-05-05 19:11 | 35.21140 | -102.68479 | 40859 ft | 593 kts | 92° |
| 2026-05-05 19:12 | 35.21420 | -102.58381 | 40861 ft | 593 kts | 92° |
| 2026-05-05 19:12 | 35.21692 | -102.48270 | 40865 ft | 594 kts | 92° |
| 2026-05-05 19:13 | 35.21955 | -102.38181 | 40862 ft | 594 kts | 92° |
| 2026-05-05 19:13 | 35.22208 | -102.28154 | 40852 ft | 594 kts | 92° |
| 2026-05-05 19:14 | 35.22454 | -102.18052 | 40845 ft | 594 kts | 92° |
| 2026-05-05 19:14 | 35.22692 | -102.07954 | 40879 ft | 594 kts | 92° |
| 2026-05-05 19:15 | 35.22922 | -101.97860 | 40911 ft | 594 kts | 92° |
| 2026-05-05 19:15 | 35.23142 | -101.87760 | 40946 ft | 594 kts | 92° |
| 2026-05-05 19:16 | 35.23355 | -101.77664 | 40961 ft | 594 kts | 92° |
| 2026-05-05 19:16 | 35.23564 | -101.67544 | 40952 ft | 595 kts | 92° |
| 2026-05-05 19:17 | 35.23982 | -101.57431 | 40955 ft | 596 kts | 90° |
| 2026-05-05 19:17 | 35.24515 | -101.47294 | 40917 ft | 596 kts | 90° |
| 2026-05-05 19:18 | 35.25013 | -101.37156 | 40877 ft | 596 kts | 90° |
| 2026-05-05 19:18 | 35.25467 | -101.27020 | 40838 ft | 596 kts | 90° |
| 2026-05-05 19:19 | 35.25899 | -101.16884 | 40844 ft | 597 kts | 90° |
| 2026-05-05 19:19 | 35.26325 | -101.06743 | 40850 ft | 597 kts | 90° |
| 2026-05-05 19:20 | 35.26745 | -100.96610 | 40854 ft | 597 kts | 90° |
| 2026-05-05 19:20 | 35.27158 | -100.86450 | 40847 ft | 597 kts | 90° |
| 2026-05-05 19:21 | 35.27562 | -100.76310 | 40848 ft | 597 kts | 90° |
| 2026-05-05 19:21 | 35.27956 | -100.66214 | 40848 ft | 597 kts | 90° |
| 2026-05-05 19:22 | 35.28343 | -100.56065 | 40845 ft | 597 kts | 90° |
| 2026-05-05 19:22 | 35.28721 | -100.45910 | 40845 ft | 597 kts | 90° |
| 2026-05-05 19:23 | 35.29092 | -100.35744 | 40841 ft | 597 kts | 90° |
| 2026-05-05 19:23 | 35.29454 | -100.25588 | 40843 ft | 597 kts | 90° |
| 2026-05-05 19:24 | 35.29807 | -100.15412 | 40835 ft | 598 kts | 90° |
| 2026-05-05 19:24 | 35.30152 | -100.05238 | 40837 ft | 598 kts | 90° |
| 2026-05-05 19:25 | 35.30490 | -99.95058 | 40839 ft | 598 kts | 91° |
| 2026-05-05 19:25 | 35.30819 | -99.84877 | 40842 ft | 598 kts | 91° |
| 2026-05-05 19:26 | 35.31139 | -99.74697 | 40852 ft | 598 kts | 91° |
| 2026-05-05 19:26 | 35.31448 | -99.64585 | 40864 ft | 598 kts | 91° |
| 2026-05-05 19:27 | 35.31751 | -99.54393 | 40876 ft | 598 kts | 91° |
| 2026-05-05 19:27 | 35.32047 | -99.44137 | 40881 ft | 598 kts | 91° |
| 2026-05-05 19:28 | 35.32331 | -99.34022 | 40884 ft | 599 kts | 91° |
| 2026-05-05 19:28 | 35.32608 | -99.23830 | 40895 ft | 598 kts | 91° |
| 2026-05-05 19:29 | 35.32878 | -99.13632 | 40896 ft | 598 kts | 91° |
| 2026-05-05 19:29 | 35.33138 | -99.03436 | 40887 ft | 598 kts | 91° |
| 2026-05-05 19:30 | 35.33390 | -98.93235 | 40872 ft | 598 kts | 91° |
| 2026-05-05 19:30 | 35.33632 | -98.83109 | 40866 ft | 599 kts | 91° |
| 2026-05-05 19:31 | 35.33867 | -98.72896 | 40868 ft | 599 kts | 91° |
| 2026-05-05 19:31 | 35.34091 | -98.62677 | 40872 ft | 599 kts | 91° |
| 2026-05-05 19:32 | 35.34306 | -98.52476 | 40865 ft | 599 kts | 91° |
| 2026-05-05 19:32 | 35.34515 | -98.42273 | 40850 ft | 599 kts | 91° |
| 2026-05-05 19:33 | 35.34715 | -98.32066 | 40837 ft | 600 kts | 91° |
| 2026-05-05 19:33 | 35.34906 | -98.21853 | 40845 ft | 600 kts | 91° |
| 2026-05-05 19:34 | 35.35087 | -98.11696 | 40852 ft | 600 kts | 91° |
| 2026-05-05 19:35 | 35.35342 | -97.96564 | 40853 ft | 600 kts | 91° |
| 2026-05-05 19:35 | 35.35503 | -97.86338 | 40850 ft | 600 kts | 91° |
| 2026-05-05 19:36 | 35.35656 | -97.76132 | 40825 ft | 600 kts | 91° |
| 2026-05-05 19:36 | 35.35776 | -97.67617 | 40831 ft | 600 kts | 91° |
| 2026-05-05 19:37 | 35.35472 | -97.57442 | 40833 ft | 597 kts | 99° |
| 2026-05-05 19:37 | 35.34519 | -97.47349 | 40822 ft | 596 kts | 101° |
| 2026-05-05 19:38 | 35.33455 | -97.37272 | 40822 ft | 596 kts | 101° |
| 2026-05-05 19:38 | 35.32377 | -97.27203 | 40817 ft | 596 kts | 101° |
| 2026-05-05 19:39 | 35.31308 | -97.17140 | 40811 ft | 597 kts | 101° |
| 2026-05-05 19:39 | 35.30235 | -97.07044 | 40819 ft | 597 kts | 101° |
| 2026-05-05 19:40 | 35.29157 | -96.96969 | 40824 ft | 597 kts | 101° |
| 2026-05-05 19:40 | 35.28069 | -96.86886 | 40822 ft | 597 kts | 101° |
| 2026-05-05 19:41 | 35.26971 | -96.76804 | 40804 ft | 598 kts | 101° |
| 2026-05-05 19:41 | 35.25863 | -96.66710 | 40804 ft | 598 kts | 101° |
| 2026-05-05 19:42 | 35.24748 | -96.56627 | 40804 ft | 598 kts | 101° |
| 2026-05-05 19:42 | 35.23632 | -96.46607 | 40784 ft | 598 kts | 101° |
| 2026-05-05 19:43 | 35.22500 | -96.36525 | 40779 ft | 598 kts | 101° |
| 2026-05-05 19:43 | 35.21359 | -96.26448 | 40764 ft | 598 kts | 101° |
| 2026-05-05 19:44 | 35.20208 | -96.16371 | 40757 ft | 598 kts | 101° |
| 2026-05-05 19:44 | 35.19053 | -96.06308 | 40750 ft | 598 kts | 101° |
| 2026-05-05 19:45 | 35.17892 | -95.96232 | 40745 ft | 598 kts | 101° |
| 2026-05-05 19:45 | 35.16721 | -95.86160 | 40746 ft | 598 kts | 101° |
| 2026-05-05 19:46 | 35.15542 | -95.76108 | 40748 ft | 598 kts | 101° |
| 2026-05-05 19:46 | 35.14355 | -95.66061 | 40743 ft | 598 kts | 101° |
| 2026-05-05 19:47 | 35.13157 | -95.56002 | 40742 ft | 598 kts | 101° |
| 2026-05-05 19:47 | 35.11952 | -95.45943 | 40740 ft | 598 kts | 101° |
| 2026-05-05 19:48 | 35.10689 | -95.35966 | 40740 ft | 598 kts | 102° |
| 2026-05-05 19:48 | 35.09336 | -95.25927 | 40736 ft | 598 kts | 102° |
| 2026-05-05 19:49 | 35.07982 | -95.15900 | 40732 ft | 598 kts | 102° |
| 2026-05-05 19:49 | 35.06636 | -95.05870 | 40733 ft | 599 kts | 102° |
| 2026-05-05 19:50 | 35.05287 | -94.95830 | 40739 ft | 599 kts | 102° |
| 2026-05-05 19:50 | 35.03931 | -94.85804 | 40762 ft | 599 kts | 102° |
| 2026-05-05 19:51 | 35.02568 | -94.75777 | 40763 ft | 599 kts | 102° |
| 2026-05-05 19:51 | 35.01197 | -94.65731 | 40763 ft | 599 kts | 101° |
| 2026-05-05 19:52 | 35.00326 | -94.55607 | 40768 ft | 601 kts | 95° |
| 2026-05-05 19:52 | 34.99769 | -94.45436 | 40764 ft | 601 kts | 95° |
| 2026-05-05 19:53 | 34.99140 | -94.35271 | 40767 ft | 601 kts | 96° |
| 2026-05-05 19:53 | 34.98414 | -94.25170 | 40758 ft | 600 kts | 96° |
| 2026-05-05 19:54 | 34.97643 | -94.14954 | 40752 ft | 602 kts | 96° |
| 2026-05-05 19:54 | 34.96876 | -94.04863 | 40766 ft | 600 kts | 96° |
| 2026-05-05 19:55 | 34.96101 | -93.94737 | 40765 ft | 600 kts | 96° |
| 2026-05-05 19:55 | 34.95321 | -93.84610 | 40771 ft | 599 kts | 96° |
| 2026-05-05 19:56 | 34.94535 | -93.74496 | 40780 ft | 600 kts | 96° |
| 2026-05-05 19:56 | 34.93739 | -93.64371 | 40778 ft | 600 kts | 96° |
| 2026-05-05 19:57 | 34.92935 | -93.54253 | 40771 ft | 599 kts | 96° |
| 2026-05-05 19:57 | 34.92122 | -93.44138 | 40772 ft | 599 kts | 96° |
| 2026-05-05 19:58 | 34.91302 | -93.34037 | 40792 ft | 599 kts | 96° |
| 2026-05-05 19:58 | 34.90473 | -93.23929 | 40794 ft | 599 kts | 96° |
| 2026-05-05 19:59 | 34.89636 | -93.13841 | 40798 ft | 599 kts | 96° |
| 2026-05-05 19:59 | 34.88791 | -93.03743 | 40794 ft | 599 kts | 96° |
| 2026-05-05 20:00 | 34.87936 | -92.93643 | 40797 ft | 599 kts | 96° |
| 2026-05-05 20:00 | 34.87075 | -92.83552 | 40800 ft | 599 kts | 96° |
| 2026-05-05 20:01 | 34.86205 | -92.73472 | 40803 ft | 598 kts | 96° |
| 2026-05-05 20:01 | 34.85329 | -92.63399 | 40802 ft | 598 kts | 96° |
| 2026-05-05 20:02 | 34.84442 | -92.53318 | 40806 ft | 599 kts | 96° |
| 2026-05-05 20:02 | 34.83547 | -92.43233 | 40813 ft | 599 kts | 96° |
| 2026-05-05 20:03 | 34.82645 | -92.33175 | 40816 ft | 598 kts | 96° |
| 2026-05-05 20:03 | 34.81735 | -92.23110 | 40816 ft | 597 kts | 96° |
| 2026-05-05 20:04 | 34.81354 | -92.13040 | 40826 ft | 594 kts | 82° |
| 2026-05-05 20:04 | 34.82178 | -92.03098 | 40827 ft | 592 kts | 79° |
| 2026-05-05 20:05 | 34.83125 | -91.94041 | 40815 ft | 592 kts | 79° |
| 2026-05-05 20:05 | 34.84185 | -91.84103 | 40814 ft | 592 kts | 79° |
| 2026-05-05 20:06 | 34.85206 | -91.74154 | 40828 ft | 592 kts | 79° |
| 2026-05-05 20:06 | 34.86199 | -91.64209 | 40825 ft | 591 kts | 79° |
| 2026-05-05 20:07 | 34.87179 | -91.54256 | 40825 ft | 591 kts | 79° |
| 2026-05-05 20:07 | 34.88152 | -91.44318 | 40821 ft | 591 kts | 79° |
| 2026-05-05 20:08 | 34.89120 | -91.34369 | 40814 ft | 590 kts | 79° |
| 2026-05-05 20:08 | 34.90072 | -91.24503 | 40816 ft | 590 kts | 79° |
| 2026-05-05 20:09 | 34.91021 | -91.14569 | 40822 ft | 590 kts | 79° |
| 2026-05-05 20:09 | 34.91963 | -91.04629 | 40826 ft | 590 kts | 80° |
| 2026-05-05 20:10 | 34.92895 | -90.94701 | 40831 ft | 589 kts | 80° |
| 2026-05-05 20:10 | 34.93820 | -90.84767 | 40830 ft | 589 kts | 80° |
| 2026-05-05 20:11 | 34.94736 | -90.74841 | 40832 ft | 589 kts | 80° |
| 2026-05-05 20:11 | 34.95644 | -90.64913 | 40831 ft | 589 kts | 80° |
| 2026-05-05 20:12 | 34.96542 | -90.54994 | 40831 ft | 589 kts | 80° |
| 2026-05-05 20:12 | 34.97432 | -90.45079 | 40838 ft | 588 kts | 80° |
| 2026-05-05 20:13 | 34.98314 | -90.35155 | 40840 ft | 588 kts | 80° |
| 2026-05-05 20:13 | 34.99183 | -90.25302 | 40841 ft | 588 kts | 80° |
| 2026-05-05 20:14 | 35.00047 | -90.15396 | 40842 ft | 587 kts | 80° |
| 2026-05-05 20:14 | 35.00759 | -90.07160 | 40861 ft | 587 kts | 80° |
| 2026-05-05 20:15 | 35.01166 | -89.97203 | 40858 ft | 592 kts | 94° |
| 2026-05-05 20:15 | 35.00011 | -89.87262 | 40869 ft | 592 kts | 99° |
| 2026-05-05 20:16 | 34.98544 | -89.77371 | 40869 ft | 592 kts | 100° |
| 2026-05-05 20:16 | 34.97031 | -89.67490 | 40870 ft | 592 kts | 100° |
| 2026-05-05 20:17 | 34.95547 | -89.57611 | 40869 ft | 592 kts | 99° |
| 2026-05-05 20:17 | 34.94078 | -89.47733 | 40875 ft | 592 kts | 99° |
| 2026-05-05 20:18 | 34.92606 | -89.37852 | 40877 ft | 592 kts | 99° |
| 2026-05-05 20:18 | 34.91134 | -89.28048 | 40881 ft | 591 kts | 99° |
| 2026-05-05 20:19 | 34.89646 | -89.18202 | 40890 ft | 591 kts | 99° |
| 2026-05-05 20:19 | 34.88148 | -89.08359 | 40896 ft | 591 kts | 99° |
| 2026-05-05 20:20 | 34.86642 | -88.98513 | 40903 ft | 590 kts | 99° |
| 2026-05-05 20:20 | 34.85131 | -88.88689 | 40909 ft | 590 kts | 99° |
| 2026-05-05 20:21 | 34.83614 | -88.78880 | 40913 ft | 590 kts | 99° |
| 2026-05-05 20:21 | 34.82087 | -88.69053 | 40918 ft | 589 kts | 99° |
| 2026-05-05 20:22 | 34.80564 | -88.59312 | 40914 ft | 589 kts | 99° |
| 2026-05-05 20:22 | 34.79025 | -88.49525 | 40916 ft | 589 kts | 99° |
| 2026-05-05 20:23 | 34.77477 | -88.39737 | 40918 ft | 588 kts | 99° |
| 2026-05-05 20:23 | 34.75928 | -88.29992 | 40925 ft | 588 kts | 99° |
| 2026-05-05 20:24 | 34.74364 | -88.20200 | 40929 ft | 588 kts | 99° |
| 2026-05-05 20:24 | 34.72797 | -88.10448 | 40936 ft | 588 kts | 99° |
| 2026-05-05 20:25 | 34.71222 | -88.00697 | 40935 ft | 587 kts | 99° |
| 2026-05-05 20:25 | 34.69640 | -87.90954 | 40938 ft | 587 kts | 99° |
| 2026-05-05 20:26 | 34.68051 | -87.81214 | 40937 ft | 587 kts | 99° |
| 2026-05-05 20:26 | 34.66453 | -87.71477 | 40939 ft | 588 kts | 99° |
| 2026-05-05 20:27 | 34.64909 | -87.61785 | 40935 ft | 587 kts | 98° |
| 2026-05-05 20:27 | 34.63440 | -87.52040 | 40938 ft | 587 kts | 98° |
| 2026-05-05 20:28 | 34.61949 | -87.42294 | 40942 ft | 587 kts | 98° |
| 2026-05-05 20:28 | 34.60446 | -87.32560 | 40951 ft | 586 kts | 98° |
| 2026-05-05 20:29 | 34.58933 | -87.22823 | 40963 ft | 586 kts | 98° |
| 2026-05-05 20:29 | 34.57415 | -87.13109 | 40966 ft | 586 kts | 98° |
| 2026-05-05 20:30 | 34.55888 | -87.03391 | 40962 ft | 586 kts | 98° |
| 2026-05-05 20:30 | 34.54282 | -86.93691 | 40960 ft | 587 kts | 104° |
| 2026-05-05 20:31 | 34.51921 | -86.84215 | 40963 ft | 587 kts | 107° |
| 2026-05-05 20:31 | 34.49468 | -86.74847 | 40964 ft | 586 kts | 107° |
| 2026-05-05 20:32 | 34.47009 | -86.65430 | 40971 ft | 586 kts | 107° |
| 2026-05-05 20:32 | 34.44537 | -86.56006 | 40901 ft | 586 kts | 107° |
| 2026-05-05 20:32 | 34.43304 | -86.51319 | 40660 ft | 584 kts | 107° |
| 2026-05-05 20:33 | 34.42072 | -86.46641 | 40421 ft | 583 kts | 107° |
| 2026-05-05 20:33 | 34.40835 | -86.41948 | 40166 ft | 583 kts | 107° |
| 2026-05-05 20:33 | 34.39600 | -86.37270 | 39924 ft | 584 kts | 106° |
| 2026-05-05 20:33 | 34.38366 | -86.32605 | 39683 ft | 584 kts | 106° |
| 2026-05-05 20:34 | 34.37121 | -86.27907 | 39441 ft | 585 kts | 106° |
| 2026-05-05 20:34 | 34.35876 | -86.23213 | 39207 ft | 586 kts | 106° |
| 2026-05-05 20:34 | 34.34627 | -86.18517 | 38973 ft | 586 kts | 106° |
| 2026-05-05 20:34 | 34.33376 | -86.13814 | 38740 ft | 587 kts | 106° |
| 2026-05-05 20:35 | 34.32149 | -86.09115 | 38249 ft | 584 kts | 105° |
| 2026-05-05 20:35 | 34.30943 | -86.04436 | 37604 ft | 584 kts | 105° |
| 2026-05-05 20:35 | 34.29733 | -85.99745 | 36923 ft | 584 kts | 105° |
| 2026-05-05 20:35 | 34.28516 | -85.95047 | 36249 ft | 584 kts | 105° |
| 2026-05-05 20:36 | 34.27313 | -85.90414 | 35535 ft | 585 kts | 105° |
| 2026-05-05 20:36 | 34.26089 | -85.85717 | 34941 ft | 584 kts | 105° |
| 2026-05-05 20:36 | 34.24871 | -85.81055 | 34431 ft | 580 kts | 105° |
| 2026-05-05 20:36 | 34.23656 | -85.76412 | 33882 ft | 577 kts | 105° |
| 2026-05-05 20:37 | 34.22445 | -85.71789 | 33299 ft | 573 kts | 105° |
| 2026-05-05 20:37 | 34.21250 | -85.67231 | 32775 ft | 568 kts | 105° |
| 2026-05-05 20:37 | 34.20054 | -85.62682 | 32254 ft | 563 kts | 106° |
| 2026-05-05 20:37 | 34.18873 | -85.58199 | 31743 ft | 558 kts | 106° |
| 2026-05-05 20:38 | 34.17698 | -85.53745 | 31232 ft | 553 kts | 106° |
| 2026-05-05 20:38 | 34.16533 | -85.49339 | 30723 ft | 548 kts | 107° |
| 2026-05-05 20:38 | 34.15378 | -85.44977 | 30257 ft | 542 kts | 107° |
| 2026-05-05 20:38 | 34.14235 | -85.40666 | 29748 ft | 536 kts | 107° |
| 2026-05-05 20:39 | 34.13112 | -85.36401 | 29189 ft | 531 kts | 107° |
| 2026-05-05 20:39 | 34.12017 | -85.32163 | 28667 ft | 526 kts | 107° |
| 2026-05-05 20:39 | 34.10937 | -85.27980 | 28181 ft | 520 kts | 107° |
| 2026-05-05 20:39 | 34.09862 | -85.23828 | 27685 ft | 515 kts | 107° |
| 2026-05-05 20:40 | 34.08797 | -85.19727 | 27197 ft | 510 kts | 107° |
| 2026-05-05 20:40 | 34.07741 | -85.15666 | 26715 ft | 505 kts | 107° |
| 2026-05-05 20:40 | 34.06692 | -85.11642 | 26228 ft | 500 kts | 107° |
| 2026-05-05 20:40 | 34.05587 | -85.07686 | 25735 ft | 495 kts | 112° |
| 2026-05-05 20:41 | 34.03899 | -85.04117 | 25268 ft | 487 kts | 130° |
| 2026-05-05 20:41 | 34.01571 | -85.01224 | 24783 ft | 477 kts | 143° |
| 2026-05-05 20:41 | 33.99030 | -84.98670 | 24301 ft | 472 kts | 144° |
| 2026-05-05 20:41 | 33.96510 | -84.96164 | 23822 ft | 469 kts | 144° |
| 2026-05-05 20:42 | 33.94016 | -84.93647 | 23298 ft | 465 kts | 144° |
| 2026-05-05 20:42 | 33.91558 | -84.91139 | 22781 ft | 460 kts | 143° |
| 2026-05-05 20:42 | 33.89131 | -84.88655 | 22297 ft | 455 kts | 143° |
| 2026-05-05 20:42 | 33.86745 | -84.86196 | 21804 ft | 449 kts | 143° |
| 2026-05-05 20:43 | 33.84382 | -84.83756 | 21332 ft | 444 kts | 143° |
| 2026-05-05 20:43 | 33.82058 | -84.81358 | 20855 ft | 439 kts | 143° |
| 2026-05-05 20:43 | 33.79747 | -84.78973 | 20379 ft | 434 kts | 142° |
| 2026-05-05 20:43 | 33.77468 | -84.76624 | 19910 ft | 429 kts | 142° |
| 2026-05-05 20:44 | 33.75217 | -84.74304 | 19446 ft | 425 kts | 142° |
| 2026-05-05 20:44 | 33.72925 | -84.72105 | 18977 ft | 418 kts | 149° |
| 2026-05-05 20:44 | 33.70477 | -84.70271 | 18521 ft | 412 kts | 153° |
| 2026-05-05 20:44 | 33.68014 | -84.68539 | 18025 ft | 407 kts | 153° |
| 2026-05-05 20:45 | 33.63212 | -84.65168 | 17087 ft | 397 kts | 153° |
| 2026-05-05 20:45 | 33.60846 | -84.63503 | 16639 ft | 392 kts | 153° |
| 2026-05-05 20:45 | 33.58507 | -84.61856 | 16190 ft | 387 kts | 153° |
| 2026-05-05 20:46 | 33.56248 | -84.60138 | 15751 ft | 385 kts | 146° |
| 2026-05-05 20:46 | 33.54465 | -84.57760 | 15305 ft | 387 kts | 123° |
| 2026-05-05 20:46 | 33.53520 | -84.54752 | 14865 ft | 387 kts | 100° |
| 2026-05-05 20:46 | 33.53414 | -84.51553 | 14418 ft | 383 kts | 88° |
| 2026-05-05 20:47 | 33.53515 | -84.48373 | 13949 ft | 381 kts | 88° |
| 2026-05-05 20:47 | 33.53591 | -84.45206 | 13473 ft | 378 kts | 89° |
| 2026-05-05 20:47 | 33.53633 | -84.42078 | 13034 ft | 374 kts | 89° |
| 2026-05-05 20:47 | 33.53658 | -84.38972 | 12606 ft | 370 kts | 89° |
| 2026-05-05 20:48 | 33.53672 | -84.35898 | 12191 ft | 367 kts | 90° |
| 2026-05-05 20:48 | 33.53681 | -84.32854 | 11772 ft | 364 kts | 90° |
| 2026-05-05 20:48 | 33.53686 | -84.29830 | 11358 ft | 362 kts | 90° |
| 2026-05-05 20:48 | 33.53697 | -84.26818 | 10948 ft | 359 kts | 90° |
| 2026-05-05 20:49 | 33.53702 | -84.23845 | 10533 ft | 355 kts | 90° |
| 2026-05-05 20:49 | 33.53703 | -84.20908 | 10262 ft | 347 kts | 90° |
| 2026-05-05 20:49 | 33.53705 | -84.18071 | 10148 ft | 333 kts | 90° |
| 2026-05-05 20:49 | 33.53706 | -84.15343 | 10027 ft | 322 kts | 90° |
| 2026-05-05 20:50 | 33.53708 | -84.12688 | 9693 ft | 317 kts | 90° |
| 2026-05-05 20:50 | 33.53715 | -84.10947 | 9475 ft | 315 kts | 90° |
| 2026-05-05 20:50 | 33.53718 | -84.07448 | 9023 ft | 312 kts | 91° |
| 2026-05-05 20:50 | 33.53720 | -84.04867 | 8686 ft | 309 kts | 91° |
| 2026-05-05 20:51 | 33.53726 | -84.02294 | 8368 ft | 306 kts | 91° |
| 2026-05-05 20:51 | 33.53765 | -83.99762 | 8188 ft | 301 kts | 90° |
| 2026-05-05 20:51 | 33.53855 | -83.97299 | 7975 ft | 301 kts | 84° |
| 2026-05-05 20:51 | 33.54486 | -83.94907 | 7717 ft | 303 kts | 62° |
| 2026-05-05 20:52 | 33.55768 | -83.92914 | 7427 ft | 301 kts | 46° |
| 2026-05-05 20:52 | 33.57255 | -83.91154 | 7179 ft | 300 kts | 41° |
| 2026-05-05 20:52 | 33.59003 | -83.89821 | 6914 ft | 298 kts | 21° |
| 2026-05-05 20:52 | 33.61017 | -83.89437 | 6653 ft | 291 kts | 351° |
| 2026-05-05 20:53 | 33.62832 | -83.90302 | 6393 ft | 276 kts | 318° |
| 2026-05-05 20:53 | 33.63915 | -83.92083 | 6135 ft | 260 kts | 284° |
| 2026-05-05 20:53 | 33.63968 | -83.94145 | 5996 ft | 240 kts | 251° |
| 2026-05-05 20:53 | 33.63538 | -83.96029 | 5968 ft | 228 kts | 253° |
| 2026-05-05 20:54 | 33.63267 | -83.97859 | 5969 ft | 217 kts | 260° |
| 2026-05-05 20:54 | 33.63188 | -83.99612 | 6015 ft | 205 kts | 264° |
| 2026-05-05 20:54 | 33.63187 | -84.01292 | 5991 ft | 199 kts | 265° |
| 2026-05-05 20:54 | 33.63191 | -84.02954 | 5976 ft | 199 kts | 265° |
| 2026-05-05 20:55 | 33.63199 | -84.04552 | 5972 ft | 182 kts | 265° |
| 2026-05-05 20:55 | 33.63208 | -84.05993 | 5995 ft | 166 kts | 264° |
| 2026-05-05 20:55 | 33.63210 | -84.06931 | 5983 ft | 168 kts | 264° |
| 2026-05-05 20:55 | 33.63207 | -84.08796 | 5974 ft | 170 kts | 264° |
| 2026-05-05 20:56 | 33.63202 | -84.09764 | 5956 ft | 172 kts | 264° |
| 2026-05-05 20:56 | 33.63195 | -84.11201 | 5959 ft | 171 kts | 264° |
| 2026-05-05 20:56 | 33.63188 | -84.12615 | 5871 ft | 172 kts | 264° |
| 2026-05-05 20:56 | 33.63183 | -84.14045 | 5623 ft | 168 kts | 264° |
| 2026-05-05 20:57 | 33.63186 | -84.15861 | 5249 ft | 158 kts | 263° |
| 2026-05-05 20:57 | 33.63187 | -84.16721 | 5077 ft | 152 kts | 263° |
| 2026-05-05 20:57 | 33.63187 | -84.17939 | 4862 ft | 141 kts | 263° |
| 2026-05-05 20:57 | 33.63186 | -84.19113 | 4683 ft | 141 kts | 262° |
| 2026-05-05 20:58 | 33.63183 | -84.20298 | 4481 ft | 142 kts | 262° |
| 2026-05-05 20:58 | 33.63185 | -84.21487 | 4307 ft | 142 kts | 262° |
| 2026-05-05 20:58 | 33.63185 | -84.22662 | 4125 ft | 140 kts | 263° |
| 2026-05-05 20:58 | 33.63185 | -84.23818 | 3945 ft | 139 kts | 263° |
| 2026-05-05 20:59 | 33.63183 | -84.24993 | 3756 ft | 140 kts | 263° |
| 2026-05-05 20:59 | 33.63187 | -84.26164 | 3549 ft | 141 kts | 263° |
| 2026-05-05 20:59 | 33.63178 | -84.27341 | 3356 ft | 142 kts | 261° |
| 2026-05-05 20:59 | 33.63172 | -84.28520 | 3188 ft | 141 kts | 262° |
| 2026-05-05 21:00 | 33.63181 | -84.29690 | 3021 ft | 139 kts | 263° |
| 2026-05-05 21:00 | 33.63184 | -84.30875 | 2821 ft | 143 kts | 264° |
| 2026-05-05 21:00 | 33.63185 | -84.32058 | 2632 ft | 140 kts | 263° |
| 2026-05-05 21:00 | 33.63193 | -84.33223 | 2442 ft | 139 kts | 262° |
| 2026-05-05 21:01 | 33.63184 | -84.34368 | 2266 ft | 140 kts | 262° |
| 2026-05-05 21:01 | 33.63184 | -84.35545 | 2086 ft | 139 kts | 263° |
| 2026-05-05 21:01 | 33.63185 | -84.36676 | 1912 ft | 135 kts | 263° |
| 2026-05-05 21:01 | 33.63182 | -84.37802 | 1726 ft | 135 kts | 263° |
| 2026-05-05 21:02 | 33.63182 | -84.38917 | 1527 ft | 133 kts | 267° |
| 2026-05-05 21:02 | 33.63191 | -84.40040 | 1311 ft | 134 kts | 265° |
| 2026-05-05 21:02 | 33.63202 | -84.41131 | 1188 ft | 131 kts | 262° |
| 2026-05-05 21:02 | 33.63185 | -84.42255 | 1060 ft | 139 kts | 266° |
| 2026-05-05 21:03 | 33.63181 | -84.43347 | 1044 ft | 118 kts | 269° |
| 2026-05-05 21:03 | 33.63179 | -84.44171 | 1040 ft | 74 kts | 270° |
| 2026-05-05 21:03 | 33.63181 | -84.44509 | 1041 ft | 31 kts | 270° |
| 2026-05-05 21:03 | 33.63192 | -84.44739 | 1043 ft | 20 kts | 299° |
| 2026-05-05 21:04 | 33.63340 | -84.44786 | 1042 ft | 24 kts | 357° |
| 2026-05-05 21:04 | 33.63520 | -84.44786 | 1041 ft | 23 kts | 360° |
| 2026-05-05 21:04 | 33.63579 | -84.44736 | 1041 ft | 9 kts | 81° |
| 2026-05-05 21:04 | 33.63582 | -84.44612 | 1042 ft | 20 kts | 90° |
| 2026-05-05 21:05 | 33.63582 | -84.44514 | 1042 ft | 15 kts | 89° |
| 2026-05-05 21:05 | 33.63583 | -84.44446 | 1042 ft | 5 kts | 89° |
| 2026-05-05 21:05 | 33.63583 | -84.44355 | 1042 ft | 10 kts | 90° |
| 2026-05-05 21:05 | 33.63583 | -84.44332 | 1042 ft | 0 kts | 90° |
| 2026-05-05 21:06 | 33.63583 | -84.44329 | 1042 ft | 0 kts | 90° |
| 2026-05-05 21:07 | 33.63583 | -84.44327 | 1042 ft | 3 kts | 90° |
| 2026-05-05 21:07 | 33.63582 | -84.44253 | 1042 ft | 15 kts | 90° |
| 2026-05-05 21:08 | 33.63582 | -84.44084 | 1043 ft | 25 kts | 90° |
| 2026-05-05 21:08 | 33.63582 | -84.43992 | 1042 ft | 10 kts | 88° |
| 2026-05-05 21:08 | 33.63583 | -84.43900 | 1042 ft | 15 kts | 89° |
| 2026-05-05 21:08 | 33.63583 | -84.43749 | 1042 ft | 18 kts | 90° |
| 2026-05-05 21:09 | 33.63582 | -84.43583 | 1041 ft | 24 kts | 89° |
| 2026-05-05 21:09 | 33.63582 | -84.43387 | 1041 ft | 23 kts | 90° |
| 2026-05-05 21:09 | 33.63582 | -84.43193 | 1041 ft | 21 kts | 88° |
| 2026-05-05 21:09 | 33.63583 | -84.42997 | 1041 ft | 20 kts | 90° |
| 2026-05-05 21:10 | 33.63583 | -84.42880 | 1041 ft | 13 kts | 90° |
| 2026-05-05 21:10 | 33.63605 | -84.42791 | 1042 ft | 16 kts | 43° |
| 2026-05-05 21:10 | 33.63745 | -84.42737 | 1042 ft | 24 kts | 2° |
| 2026-05-05 21:10 | 33.63869 | -84.42736 | 1042 ft | 15 kts | 359° |
| 2026-05-05 21:11 | 33.63941 | -84.42735 | 1042 ft | 4 kts | 14° |
| 2026-05-05 21:11 | 33.63943 | -84.42710 | 1042 ft | 6 kts | 91° |
| 2026-05-05 21:11 | 33.63943 | -84.42647 | 1042 ft | 5 kts | 90° |
| 2026-05-05 21:11 | 33.63943 | -84.42646 | 1042 ft | 0 kts | 90° |
| 2026-05-05 21:12 | 33.63943 | -84.42642 | 1042 ft | 0 kts | 89° |